sensor_id;sensor_type;location;lat;lon;timestamp;P1;durP1;ratioP1;P2;durP2;ratioP2
8791;SDS011;4432;50.890;4.744;2023-02-01T00:00:01;10.47;;;4.93;;
8791;SDS011;4432;50.890;4.744;2023-02-01T00:02:28;17.90;;;4.70;;
8791;SDS011;4432;50.890;4.744;2023-02-01T00:04:54;9.67;;;3.90;;
8791;SDS011;4432;50.890;4.744;2023-02-01T00:07:20;11.60;;;4.10;;
8791;SDS011;4432;50.890;4.744;2023-02-01T00:09:46;12.73;;;4.27;;
8791;SDS011;4432;50.890;4.744;2023-02-01T00:12:11;15.63;;;4.23;;
8791;SDS011;4432;50.890;4.744;2023-02-01T00:14:37;11.07;;;4.13;;
8791;SDS011;4432;50.890;4.744;2023-02-01T00:17:05;6.70;;;3.00;;
8791;SDS011;4432;50.890;4.744;2023-02-01T00:19:31;15.43;;;3.83;;
8791;SDS011;4432;50.890;4.744;2023-02-01T00:21:57;16.73;;;3.43;;
8791;SDS011;4432;50.890;4.744;2023-02-01T00:24:23;9.00;;;2.93;;
8791;SDS011;4432;50.890;4.744;2023-02-01T00:26:49;16.87;;;3.20;;
8791;SDS011;4432;50.890;4.744;2023-02-01T00:29:16;8.17;;;3.27;;
8791;SDS011;4432;50.890;4.744;2023-02-01T00:31:44;10.53;;;3.07;;
8791;SDS011;4432;50.890;4.744;2023-02-01T00:34:14;14.00;;;3.63;;
8791;SDS011;4432;50.890;4.744;2023-02-01T00:36:41;14.10;;;2.93;;
8791;SDS011;4432;50.890;4.744;2023-02-01T00:39:08;5.53;;;2.73;;
8791;SDS011;4432;50.890;4.744;2023-02-01T00:41:34;11.63;;;3.37;;
8791;SDS011;4432;50.890;4.744;2023-02-01T00:44:00;12.87;;;2.80;;
8791;SDS011;4432;50.890;4.744;2023-02-01T00:46:27;6.03;;;2.77;;
8791;SDS011;4432;50.890;4.744;2023-02-01T00:48:53;13.93;;;3.33;;
8791;SDS011;4432;50.890;4.744;2023-02-01T00:51:21;14.27;;;3.53;;
8791;SDS011;4432;50.890;4.744;2023-02-01T00:53:49;18.30;;;3.50;;
8791;SDS011;4432;50.890;4.744;2023-02-01T00:56:15;14.80;;;3.77;;
8791;SDS011;4432;50.890;4.744;2023-02-01T00:58:41;9.70;;;2.80;;
8791;SDS011;4432;50.890;4.744;2023-02-01T01:01:16;9.20;;;3.33;;
8791;SDS011;4432;50.890;4.744;2023-02-01T01:03:48;6.80;;;3.00;;
8791;SDS011;4432;50.890;4.744;2023-02-01T01:06:17;9.23;;;3.30;;
8791;SDS011;4432;50.890;4.744;2023-02-01T01:08:46;11.73;;;3.33;;
8791;SDS011;4432;50.890;4.744;2023-02-01T01:11:16;14.87;;;3.27;;
8791;SDS011;4432;50.890;4.744;2023-02-01T01:13:43;11.40;;;2.97;;
8791;SDS011;4432;50.890;4.744;2023-02-01T01:16:12;8.63;;;3.13;;
8791;SDS011;4432;50.890;4.744;2023-02-01T01:18:38;6.07;;;3.10;;
8791;SDS011;4432;50.890;4.744;2023-02-01T01:21:05;4.67;;;2.70;;
8791;SDS011;4432;50.890;4.744;2023-02-01T01:23:32;6.00;;;2.73;;
8791;SDS011;4432;50.890;4.744;2023-02-01T01:25:58;14.50;;;3.23;;
8791;SDS011;4432;50.890;4.744;2023-02-01T01:28:24;8.13;;;3.10;;
8791;SDS011;4432;50.890;4.744;2023-02-01T01:30:50;12.77;;;2.73;;
8791;SDS011;4432;50.890;4.744;2023-02-01T01:33:16;6.63;;;2.90;;
8791;SDS011;4432;50.890;4.744;2023-02-01T01:35:42;9.93;;;2.03;;
8791;SDS011;4432;50.890;4.744;2023-02-01T01:38:08;8.00;;;2.70;;
8791;SDS011;4432;50.890;4.744;2023-02-01T01:40:35;7.43;;;2.53;;
8791;SDS011;4432;50.890;4.744;2023-02-01T01:43:01;10.67;;;2.47;;
8791;SDS011;4432;50.890;4.744;2023-02-01T01:47:53;13.87;;;2.77;;
8791;SDS011;4432;50.890;4.744;2023-02-01T01:50:27;9.93;;;2.67;;
8791;SDS011;4432;50.890;4.744;2023-02-01T01:52:57;10.73;;;2.73;;
8791;SDS011;4432;50.890;4.744;2023-02-01T01:55:27;7.30;;;2.40;;
8791;SDS011;4432;50.890;4.744;2023-02-01T01:58:00;11.10;;;2.90;;
8791;SDS011;4432;50.890;4.744;2023-02-01T02:00:30;11.73;;;3.13;;
8791;SDS011;4432;50.890;4.744;2023-02-01T02:02:58;10.10;;;3.00;;
8791;SDS011;4432;50.890;4.744;2023-02-01T02:05:34;15.97;;;2.70;;
8791;SDS011;4432;50.890;4.744;2023-02-01T02:08:00;4.57;;;2.40;;
8791;SDS011;4432;50.890;4.744;2023-02-01T02:10:26;13.27;;;3.60;;
8791;SDS011;4432;50.890;4.744;2023-02-01T02:13:13;10.30;;;2.60;;
8791;SDS011;4432;50.890;4.744;2023-02-01T02:15:55;9.47;;;2.53;;
8791;SDS011;4432;50.890;4.744;2023-02-01T02:24:24;7.60;;;1.80;;
8791;SDS011;4432;50.890;4.744;2023-02-01T02:27:16;7.63;;;2.13;;
8791;SDS011;4432;50.890;4.744;2023-02-01T02:30:02;17.17;;;2.40;;
8791;SDS011;4432;50.890;4.744;2023-02-01T02:41:50;9.43;;;2.13;;
8791;SDS011;4432;50.890;4.744;2023-02-01T02:47:33;9.07;;;2.37;;
8791;SDS011;4432;50.890;4.744;2023-02-01T02:50:09;4.07;;;1.90;;
8791;SDS011;4432;50.890;4.744;2023-02-01T02:55:58;6.20;;;1.23;;
8791;SDS011;4432;50.890;4.744;2023-02-01T02:58:44;8.60;;;2.10;;
8791;SDS011;4432;50.890;4.744;2023-02-01T03:01:30;9.20;;;1.73;;
8791;SDS011;4432;50.890;4.744;2023-02-01T03:04:16;7.20;;;2.00;;
8791;SDS011;4432;50.890;4.744;2023-02-01T03:06:43;10.10;;;2.33;;
8791;SDS011;4432;50.890;4.744;2023-02-01T03:09:16;10.53;;;2.07;;
8791;SDS011;4432;50.890;4.744;2023-02-01T03:12:04;5.37;;;1.87;;
8791;SDS011;4432;50.890;4.744;2023-02-01T03:14:56;12.90;;;2.37;;
8791;SDS011;4432;50.890;4.744;2023-02-01T03:17:29;6.63;;;1.77;;
8791;SDS011;4432;50.890;4.744;2023-02-01T03:20:01;4.47;;;2.00;;
8791;SDS011;4432;50.890;4.744;2023-02-01T03:22:28;6.13;;;1.90;;
8791;SDS011;4432;50.890;4.744;2023-02-01T03:25:02;8.77;;;2.07;;
8791;SDS011;4432;50.890;4.744;2023-02-01T03:27:47;7.93;;;1.90;;
8791;SDS011;4432;50.890;4.744;2023-02-01T03:30:38;13.50;;;2.03;;
8791;SDS011;4432;50.890;4.744;2023-02-01T03:33:10;7.27;;;1.90;;
8791;SDS011;4432;50.890;4.744;2023-02-01T03:36:03;7.33;;;2.03;;
8791;SDS011;4432;50.890;4.744;2023-02-01T03:42:12;9.80;;;2.07;;
8791;SDS011;4432;50.890;4.744;2023-02-01T03:44:41;7.53;;;2.30;;
8791;SDS011;4432;50.890;4.744;2023-02-01T03:47:20;5.90;;;1.97;;
8791;SDS011;4432;50.890;4.744;2023-02-01T03:49:54;13.90;;;2.07;;
8791;SDS011;4432;50.890;4.744;2023-02-01T03:52:30;9.80;;;2.27;;
8791;SDS011;4432;50.890;4.744;2023-02-01T03:55:07;14.83;;;2.50;;
8791;SDS011;4432;50.890;4.744;2023-02-01T03:57:35;6.97;;;1.70;;
8791;SDS011;4432;50.890;4.744;2023-02-01T04:00:06;11.83;;;2.27;;
8791;SDS011;4432;50.890;4.744;2023-02-01T04:02:44;10.00;;;2.47;;
8791;SDS011;4432;50.890;4.744;2023-02-01T04:05:10;8.70;;;1.77;;
8791;SDS011;4432;50.890;4.744;2023-02-01T04:07:35;13.67;;;2.07;;
8791;SDS011;4432;50.890;4.744;2023-02-01T04:10:01;9.43;;;1.77;;
8791;SDS011;4432;50.890;4.744;2023-02-01T04:12:28;9.60;;;1.90;;
8791;SDS011;4432;50.890;4.744;2023-02-01T04:14:54;14.73;;;2.63;;
8791;SDS011;4432;50.890;4.744;2023-02-01T04:17:20;5.77;;;1.93;;
8791;SDS011;4432;50.890;4.744;2023-02-01T04:19:46;14.77;;;1.57;;
8791;SDS011;4432;50.890;4.744;2023-02-01T04:22:11;3.63;;;1.80;;
8791;SDS011;4432;50.890;4.744;2023-02-01T04:24:37;4.73;;;1.77;;
8791;SDS011;4432;50.890;4.744;2023-02-01T04:27:03;13.53;;;1.87;;
8791;SDS011;4432;50.890;4.744;2023-02-01T04:29:29;11.13;;;1.83;;
8791;SDS011;4432;50.890;4.744;2023-02-01T04:31:55;5.77;;;1.70;;
8791;SDS011;4432;50.890;4.744;2023-02-01T04:34:21;13.00;;;2.87;;
8791;SDS011;4432;50.890;4.744;2023-02-01T04:36:47;6.13;;;1.53;;
8791;SDS011;4432;50.890;4.744;2023-02-01T04:39:13;7.77;;;2.00;;
8791;SDS011;4432;50.890;4.744;2023-02-01T04:41:39;9.30;;;1.63;;
8791;SDS011;4432;50.890;4.744;2023-02-01T04:44:05;9.77;;;2.17;;
8791;SDS011;4432;50.890;4.744;2023-02-01T04:46:31;8.63;;;2.47;;
8791;SDS011;4432;50.890;4.744;2023-02-01T04:48:56;6.30;;;2.43;;
8791;SDS011;4432;50.890;4.744;2023-02-01T04:51:22;14.90;;;2.53;;
8791;SDS011;4432;50.890;4.744;2023-02-01T04:53:48;12.10;;;2.17;;
8791;SDS011;4432;50.890;4.744;2023-02-01T04:56:14;10.47;;;2.10;;
8791;SDS011;4432;50.890;4.744;2023-02-01T04:58:40;6.93;;;1.40;;
8791;SDS011;4432;50.890;4.744;2023-02-01T05:01:06;15.67;;;2.43;;
8791;SDS011;4432;50.890;4.744;2023-02-01T05:03:33;19.47;;;2.57;;
8791;SDS011;4432;50.890;4.744;2023-02-01T05:05:59;9.00;;;1.87;;
8791;SDS011;4432;50.890;4.744;2023-02-01T05:08:26;7.17;;;2.00;;
8791;SDS011;4432;50.890;4.744;2023-02-01T05:10:52;3.77;;;1.73;;
8791;SDS011;4432;50.890;4.744;2023-02-01T05:13:18;6.63;;;1.80;;
8791;SDS011;4432;50.890;4.744;2023-02-01T05:16:02;10.10;;;2.20;;
8791;SDS011;4432;50.890;4.744;2023-02-01T05:18:28;9.07;;;1.90;;
8791;SDS011;4432;50.890;4.744;2023-02-01T05:20:55;5.47;;;1.70;;
8791;SDS011;4432;50.890;4.744;2023-02-01T05:23:21;6.70;;;2.00;;
8791;SDS011;4432;50.890;4.744;2023-02-01T05:25:47;12.67;;;2.03;;
8791;SDS011;4432;50.890;4.744;2023-02-01T05:28:12;8.03;;;1.93;;
8791;SDS011;4432;50.890;4.744;2023-02-01T05:30:39;6.90;;;1.80;;
8791;SDS011;4432;50.890;4.744;2023-02-01T05:33:04;5.10;;;1.20;;
8791;SDS011;4432;50.890;4.744;2023-02-01T05:35:30;15.43;;;2.90;;
8791;SDS011;4432;50.890;4.744;2023-02-01T05:37:56;11.97;;;2.10;;
8791;SDS011;4432;50.890;4.744;2023-02-01T05:40:22;13.37;;;2.70;;
8791;SDS011;4432;50.890;4.744;2023-02-01T05:42:48;4.57;;;1.90;;
8791;SDS011;4432;50.890;4.744;2023-02-01T05:45:13;6.90;;;1.90;;
8791;SDS011;4432;50.890;4.744;2023-02-01T05:47:39;13.00;;;2.63;;
8791;SDS011;4432;50.890;4.744;2023-02-01T05:50:05;10.37;;;2.23;;
8791;SDS011;4432;50.890;4.744;2023-02-01T05:52:32;6.43;;;1.63;;
8791;SDS011;4432;50.890;4.744;2023-02-01T05:54:57;8.83;;;1.97;;
8791;SDS011;4432;50.890;4.744;2023-02-01T05:57:23;14.73;;;2.37;;
8791;SDS011;4432;50.890;4.744;2023-02-01T05:59:49;5.73;;;2.00;;
8791;SDS011;4432;50.890;4.744;2023-02-01T06:02:15;12.40;;;1.73;;
8791;SDS011;4432;50.890;4.744;2023-02-01T06:04:41;10.77;;;1.80;;
8791;SDS011;4432;50.890;4.744;2023-02-01T06:07:07;5.33;;;1.73;;
8791;SDS011;4432;50.890;4.744;2023-02-01T06:09:35;10.73;;;1.80;;
8791;SDS011;4432;50.890;4.744;2023-02-01T06:12:02;10.50;;;1.90;;
8791;SDS011;4432;50.890;4.744;2023-02-01T06:14:29;2.40;;;1.93;;
8791;SDS011;4432;50.890;4.744;2023-02-01T06:16:55;5.80;;;2.37;;
8791;SDS011;4432;50.890;4.744;2023-02-01T06:19:21;5.57;;;1.83;;
8791;SDS011;4432;50.890;4.744;2023-02-01T06:21:47;14.27;;;1.87;;
8791;SDS011;4432;50.890;4.744;2023-02-01T06:24:13;4.57;;;1.47;;
8791;SDS011;4432;50.890;4.744;2023-02-01T06:26:41;5.13;;;1.57;;
8791;SDS011;4432;50.890;4.744;2023-02-01T06:29:07;5.73;;;1.63;;
8791;SDS011;4432;50.890;4.744;2023-02-01T06:31:34;9.60;;;2.33;;
8791;SDS011;4432;50.890;4.744;2023-02-01T06:34:00;9.87;;;1.80;;
8791;SDS011;4432;50.890;4.744;2023-02-01T06:36:28;7.37;;;2.50;;
8791;SDS011;4432;50.890;4.744;2023-02-01T06:38:55;13.60;;;2.20;;
8791;SDS011;4432;50.890;4.744;2023-02-01T06:41:22;3.98;;;1.53;;
8791;SDS011;4432;50.890;4.744;2023-02-01T06:43:48;9.77;;;1.80;;
8791;SDS011;4432;50.890;4.744;2023-02-01T06:46:14;6.83;;;1.83;;
8791;SDS011;4432;50.890;4.744;2023-02-01T06:48:40;7.63;;;2.57;;
8791;SDS011;4432;50.890;4.744;2023-02-01T06:51:06;6.37;;;2.00;;
8791;SDS011;4432;50.890;4.744;2023-02-01T06:53:45;17.87;;;2.23;;
8791;SDS011;4432;50.890;4.744;2023-02-01T06:56:11;3.87;;;2.07;;
8791;SDS011;4432;50.890;4.744;2023-02-01T06:58:37;8.43;;;1.77;;
8791;SDS011;4432;50.890;4.744;2023-02-01T07:01:07;12.73;;;2.10;;
8791;SDS011;4432;50.890;4.744;2023-02-01T07:03:34;4.73;;;1.97;;
8791;SDS011;4432;50.890;4.744;2023-02-01T07:06:00;6.27;;;1.67;;
8791;SDS011;4432;50.890;4.744;2023-02-01T07:08:27;8.33;;;2.60;;
8791;SDS011;4432;50.890;4.744;2023-02-01T07:10:53;10.47;;;2.73;;
8791;SDS011;4432;50.890;4.744;2023-02-01T07:13:19;5.73;;;2.20;;
8791;SDS011;4432;50.890;4.744;2023-02-01T07:15:45;11.17;;;2.30;;
8791;SDS011;4432;50.890;4.744;2023-02-01T07:18:14;14.17;;;2.47;;
8791;SDS011;4432;50.890;4.744;2023-02-01T07:20:41;12.60;;;2.50;;
8791;SDS011;4432;50.890;4.744;2023-02-01T07:23:09;10.73;;;2.20;;
8791;SDS011;4432;50.890;4.744;2023-02-01T07:25:35;17.37;;;2.53;;
8791;SDS011;4432;50.890;4.744;2023-02-01T07:28:01;7.80;;;1.77;;
8791;SDS011;4432;50.890;4.744;2023-02-01T07:30:27;13.43;;;2.47;;
8791;SDS011;4432;50.890;4.744;2023-02-01T07:32:53;14.10;;;2.17;;
8791;SDS011;4432;50.890;4.744;2023-02-01T07:35:19;11.53;;;1.90;;
8791;SDS011;4432;50.890;4.744;2023-02-01T07:37:45;8.50;;;2.23;;
8791;SDS011;4432;50.890;4.744;2023-02-01T07:40:11;8.53;;;2.03;;
8791;SDS011;4432;50.890;4.744;2023-02-01T07:42:37;7.40;;;2.20;;
8791;SDS011;4432;50.890;4.744;2023-02-01T07:45:03;14.10;;;2.60;;
8791;SDS011;4432;50.890;4.744;2023-02-01T07:47:29;10.63;;;2.23;;
8791;SDS011;4432;50.890;4.744;2023-02-01T07:49:55;8.20;;;2.60;;
8791;SDS011;4432;50.890;4.744;2023-02-01T07:52:21;9.20;;;2.13;;
8791;SDS011;4432;50.890;4.744;2023-02-01T07:54:46;6.87;;;1.90;;
8791;SDS011;4432;50.890;4.744;2023-02-01T07:57:12;6.80;;;2.07;;
8791;SDS011;4432;50.890;4.744;2023-02-01T07:59:38;10.30;;;2.10;;
8791;SDS011;4432;50.890;4.744;2023-02-01T08:02:26;14.37;;;2.47;;
8791;SDS011;4432;50.890;4.744;2023-02-01T08:04:52;5.03;;;1.50;;
8791;SDS011;4432;50.890;4.744;2023-02-01T08:07:18;8.20;;;2.30;;
8791;SDS011;4432;50.890;4.744;2023-02-01T08:09:44;15.17;;;2.50;;
8791;SDS011;4432;50.890;4.744;2023-02-01T08:12:10;11.20;;;2.57;;
8791;SDS011;4432;50.890;4.744;2023-02-01T08:14:35;13.77;;;2.77;;
8791;SDS011;4432;50.890;4.744;2023-02-01T08:17:01;8.77;;;3.27;;
8791;SDS011;4432;50.890;4.744;2023-02-01T08:19:27;9.40;;;2.27;;
8791;SDS011;4432;50.890;4.744;2023-02-01T08:21:53;6.07;;;1.83;;
8791;SDS011;4432;50.890;4.744;2023-02-01T08:24:18;9.53;;;2.30;;
8791;SDS011;4432;50.890;4.744;2023-02-01T08:26:44;10.63;;;2.37;;
8791;SDS011;4432;50.890;4.744;2023-02-01T08:29:10;8.33;;;1.80;;
8791;SDS011;4432;50.890;4.744;2023-02-01T08:31:38;13.50;;;2.87;;
8791;SDS011;4432;50.890;4.744;2023-02-01T08:34:07;5.87;;;2.17;;
8791;SDS011;4432;50.890;4.744;2023-02-01T08:36:34;4.83;;;1.53;;
8791;SDS011;4432;50.890;4.744;2023-02-01T08:39:00;5.70;;;1.80;;
8791;SDS011;4432;50.890;4.744;2023-02-01T08:41:28;11.00;;;2.17;;
8791;SDS011;4432;50.890;4.744;2023-02-01T08:43:55;11.73;;;2.40;;
8791;SDS011;4432;50.890;4.744;2023-02-01T08:46:22;10.60;;;2.93;;
8791;SDS011;4432;50.890;4.744;2023-02-01T08:48:49;9.93;;;1.70;;
8791;SDS011;4432;50.890;4.744;2023-02-01T08:51:16;11.07;;;2.47;;
8791;SDS011;4432;50.890;4.744;2023-02-01T08:53:43;6.33;;;2.20;;
8791;SDS011;4432;50.890;4.744;2023-02-01T08:56:10;7.70;;;2.03;;
8791;SDS011;4432;50.890;4.744;2023-02-01T08:58:37;16.50;;;2.13;;
8791;SDS011;4432;50.890;4.744;2023-02-01T09:01:04;11.27;;;1.80;;
8791;SDS011;4432;50.890;4.744;2023-02-01T09:03:30;6.20;;;1.90;;
8791;SDS011;4432;50.890;4.744;2023-02-01T09:06:04;7.37;;;2.20;;
8791;SDS011;4432;50.890;4.744;2023-02-01T09:08:35;8.40;;;2.27;;
8791;SDS011;4432;50.890;4.744;2023-02-01T09:11:02;10.70;;;2.70;;
8791;SDS011;4432;50.890;4.744;2023-02-01T09:13:31;12.90;;;2.53;;
8791;SDS011;4432;50.890;4.744;2023-02-01T09:15:56;8.07;;;2.10;;
8791;SDS011;4432;50.890;4.744;2023-02-01T09:18:24;14.03;;;2.57;;
8791;SDS011;4432;50.890;4.744;2023-02-01T09:20:50;6.30;;;1.63;;
8791;SDS011;4432;50.890;4.744;2023-02-01T09:23:16;9.17;;;1.93;;
8791;SDS011;4432;50.890;4.744;2023-02-01T09:25:42;9.10;;;1.83;;
8791;SDS011;4432;50.890;4.744;2023-02-01T09:28:08;7.63;;;1.90;;
8791;SDS011;4432;50.890;4.744;2023-02-01T09:30:34;12.00;;;2.20;;
8791;SDS011;4432;50.890;4.744;2023-02-01T09:33:02;5.27;;;2.20;;
8791;SDS011;4432;50.890;4.744;2023-02-01T09:35:28;4.97;;;1.90;;
8791;SDS011;4432;50.890;4.744;2023-02-01T09:37:54;8.83;;;2.07;;
8791;SDS011;4432;50.890;4.744;2023-02-01T09:40:20;12.07;;;2.30;;
8791;SDS011;4432;50.890;4.744;2023-02-01T09:42:57;4.63;;;1.70;;
8791;SDS011;4432;50.890;4.744;2023-02-01T09:48:05;10.30;;;2.20;;
8791;SDS011;4432;50.890;4.744;2023-02-01T09:50:41;13.53;;;2.13;;
8791;SDS011;4432;50.890;4.744;2023-02-01T09:55:48;4.67;;;1.53;;
8791;SDS011;4432;50.890;4.744;2023-02-01T10:01:23;6.17;;;1.97;;
8791;SDS011;4432;50.890;4.744;2023-02-01T10:03:57;7.37;;;2.07;;
8791;SDS011;4432;50.890;4.744;2023-02-01T10:06:37;13.27;;;1.97;;
8791;SDS011;4432;50.890;4.744;2023-02-01T10:09:42;3.07;;;2.03;;
8791;SDS011;4432;50.890;4.744;2023-02-01T10:15:31;10.87;;;2.37;;
8791;SDS011;4432;50.890;4.744;2023-02-01T10:28:26;4.93;;;1.63;;
8791;SDS011;4432;50.890;4.744;2023-02-01T10:30:54;15.63;;;2.63;;
8791;SDS011;4432;50.890;4.744;2023-02-01T10:33:24;12.90;;;2.37;;
8791;SDS011;4432;50.890;4.744;2023-02-01T10:35:58;7.90;;;2.10;;
8791;SDS011;4432;50.890;4.744;2023-02-01T10:39:02;18.07;;;2.17;;
8791;SDS011;4432;50.890;4.744;2023-02-01T10:41:33;8.13;;;2.13;;
8791;SDS011;4432;50.890;4.744;2023-02-01T10:44:00;7.73;;;2.10;;
8791;SDS011;4432;50.890;4.744;2023-02-01T10:46:30;7.67;;;2.17;;
8791;SDS011;4432;50.890;4.744;2023-02-01T10:48:57;8.10;;;1.80;;
8791;SDS011;4432;50.890;4.744;2023-02-01T10:51:30;11.23;;;1.47;;
8791;SDS011;4432;50.890;4.744;2023-02-01T10:54:51;4.57;;;1.70;;
8791;SDS011;4432;50.890;4.744;2023-02-01T10:56:59;4.33;;;1.97;;
8791;SDS011;4432;50.890;4.744;2023-02-01T10:59:25;10.83;;;1.63;;
8791;SDS011;4432;50.890;4.744;2023-02-01T11:01:58;7.90;;;1.30;;
8791;SDS011;4432;50.890;4.744;2023-02-01T11:04:25;7.70;;;2.03;;
8791;SDS011;4432;50.890;4.744;2023-02-01T11:06:54;10.60;;;2.23;;
8791;SDS011;4432;50.890;4.744;2023-02-01T11:09:32;8.70;;;1.77;;
8791;SDS011;4432;50.890;4.744;2023-02-01T11:12:04;3.27;;;1.50;;
8791;SDS011;4432;50.890;4.744;2023-02-01T11:14:45;8.37;;;1.80;;
8791;SDS011;4432;50.890;4.744;2023-02-01T11:17:26;5.57;;;2.13;;
8791;SDS011;4432;50.890;4.744;2023-02-01T11:20:02;4.60;;;1.70;;
8791;SDS011;4432;50.890;4.744;2023-02-01T11:22:31;9.77;;;1.40;;
8791;SDS011;4432;50.890;4.744;2023-02-01T11:24:58;2.47;;;1.57;;
8791;SDS011;4432;50.890;4.744;2023-02-01T11:27:26;8.83;;;1.90;;
8791;SDS011;4432;50.890;4.744;2023-02-01T11:29:54;10.60;;;1.80;;
8791;SDS011;4432;50.890;4.744;2023-02-01T11:32:24;6.50;;;1.80;;
8791;SDS011;4432;50.890;4.744;2023-02-01T11:34:57;6.87;;;1.80;;
8791;SDS011;4432;50.890;4.744;2023-02-01T11:37:29;4.80;;;1.70;;
8791;SDS011;4432;50.890;4.744;2023-02-01T11:40:03;6.90;;;1.50;;
8791;SDS011;4432;50.890;4.744;2023-02-01T11:42:53;5.30;;;1.77;;
8791;SDS011;4432;50.890;4.744;2023-02-01T11:45:26;6.63;;;1.77;;
8791;SDS011;4432;50.890;4.744;2023-02-01T11:47:56;7.13;;;1.40;;
8791;SDS011;4432;50.890;4.744;2023-02-01T11:53:24;9.63;;;2.10;;
8791;SDS011;4432;50.890;4.744;2023-02-01T11:56:03;2.70;;;1.20;;
8791;SDS011;4432;50.890;4.744;2023-02-01T12:02:15;9.67;;;1.93;;
8791;SDS011;4432;50.890;4.744;2023-02-01T12:04:57;5.83;;;1.37;;
8791;SDS011;4432;50.890;4.744;2023-02-01T12:10:46;6.73;;;1.27;;
8791;SDS011;4432;50.890;4.744;2023-02-01T12:28:15;10.97;;;1.87;;
8791;SDS011;4432;50.890;4.744;2023-02-01T12:34:30;5.90;;;1.47;;
8791;SDS011;4432;50.890;4.744;2023-02-01T12:43:35;4.20;;;1.33;;
8791;SDS011;4432;50.890;4.744;2023-02-01T12:50:49;5.57;;;1.33;;
8791;SDS011;4432;50.890;4.744;2023-02-01T12:53:24;6.67;;;1.63;;
8791;SDS011;4432;50.890;4.744;2023-02-01T12:55:54;4.40;;;0.97;;
8791;SDS011;4432;50.890;4.744;2023-02-01T12:58:24;4.00;;;1.00;;
8791;SDS011;4432;50.890;4.744;2023-02-01T13:00:59;3.27;;;1.70;;
8791;SDS011;4432;50.890;4.744;2023-02-01T13:03:34;10.73;;;1.70;;
8791;SDS011;4432;50.890;4.744;2023-02-01T13:06:09;8.50;;;1.50;;
8791;SDS011;4432;50.890;4.744;2023-02-01T13:09:06;5.70;;;1.07;;
8791;SDS011;4432;50.890;4.744;2023-02-01T13:11:44;2.77;;;1.03;;
8791;SDS011;4432;50.890;4.744;2023-02-01T13:17:03;8.23;;;1.40;;
8791;SDS011;4432;50.890;4.744;2023-02-01T13:24:59;4.13;;;1.50;;
8791;SDS011;4432;50.890;4.744;2023-02-01T13:27:28;5.23;;;1.40;;
8791;SDS011;4432;50.890;4.744;2023-02-01T13:29:56;2.60;;;1.30;;
8791;SDS011;4432;50.890;4.744;2023-02-01T13:35:48;4.87;;;1.20;;
8791;SDS011;4432;50.890;4.744;2023-02-01T13:41:35;3.77;;;0.80;;
8791;SDS011;4432;50.890;4.744;2023-02-01T13:43:47;4.27;;;1.30;;
8791;SDS011;4432;50.890;4.744;2023-02-01T13:46:16;3.40;;;1.17;;
8791;SDS011;4432;50.890;4.744;2023-02-01T13:48:50;5.93;;;1.17;;
8791;SDS011;4432;50.890;4.744;2023-02-01T13:51:30;5.07;;;1.20;;
8791;SDS011;4432;50.890;4.744;2023-02-01T13:56:54;5.57;;;1.07;;
8791;SDS011;4432;50.890;4.744;2023-02-01T14:00:03;6.00;;;1.10;;
8791;SDS011;4432;50.890;4.744;2023-02-01T14:05:01;1.60;;;1.23;;
8791;SDS011;4432;50.890;4.744;2023-02-01T14:07:27;4.60;;;1.63;;
8791;SDS011;4432;50.890;4.744;2023-02-01T14:09:53;2.20;;;0.97;;
8791;SDS011;4432;50.890;4.744;2023-02-01T14:12:42;3.80;;;1.17;;
8791;SDS011;4432;50.890;4.744;2023-02-01T14:15:18;3.40;;;1.43;;
8791;SDS011;4432;50.890;4.744;2023-02-01T14:17:49;6.47;;;1.80;;
8791;SDS011;4432;50.890;4.744;2023-02-01T14:23:12;2.50;;;1.43;;
8791;SDS011;4432;50.890;4.744;2023-02-01T14:25:44;6.40;;;1.63;;
8791;SDS011;4432;50.890;4.744;2023-02-01T14:28:22;4.47;;;1.70;;
8791;SDS011;4432;50.890;4.744;2023-02-01T14:30:51;7.23;;;1.70;;
8791;SDS011;4432;50.890;4.744;2023-02-01T14:33:20;3.37;;;1.20;;
8791;SDS011;4432;50.890;4.744;2023-02-01T14:38:46;4.13;;;1.27;;
8791;SDS011;4432;50.890;4.744;2023-02-01T14:41:21;1.93;;;0.90;;
8791;SDS011;4432;50.890;4.744;2023-02-01T14:49:32;2.70;;;1.63;;
8791;SDS011;4432;50.890;4.744;2023-02-01T14:52:00;8.37;;;1.77;;
8791;SDS011;4432;50.890;4.744;2023-02-01T14:54:30;3.97;;;1.10;;
8791;SDS011;4432;50.890;4.744;2023-02-01T14:56:57;17.40;;;2.27;;
8791;SDS011;4432;50.890;4.744;2023-02-01T14:59:23;2.53;;;1.43;;
8791;SDS011;4432;50.890;4.744;2023-02-01T15:01:58;3.53;;;1.53;;
8791;SDS011;4432;50.890;4.744;2023-02-01T15:04:26;3.83;;;1.57;;
8791;SDS011;4432;50.890;4.744;2023-02-01T15:06:57;6.90;;;1.80;;
8791;SDS011;4432;50.890;4.744;2023-02-01T15:09:36;4.43;;;1.53;;
8791;SDS011;4432;50.890;4.744;2023-02-01T15:12:08;8.60;;;1.80;;
8791;SDS011;4432;50.890;4.744;2023-02-01T15:17:48;3.33;;;1.20;;
8791;SDS011;4432;50.890;4.744;2023-02-01T15:20:22;6.93;;;1.50;;
8791;SDS011;4432;50.890;4.744;2023-02-01T15:22:57;5.40;;;1.50;;
8791;SDS011;4432;50.890;4.744;2023-02-01T15:25:32;3.43;;;1.33;;
8791;SDS011;4432;50.890;4.744;2023-02-01T15:28:03;3.80;;;1.50;;
8791;SDS011;4432;50.890;4.744;2023-02-01T15:30:32;4.23;;;1.30;;
8791;SDS011;4432;50.890;4.744;2023-02-01T15:41:06;4.07;;;1.67;;
8791;SDS011;4432;50.890;4.744;2023-02-01T15:43:37;2.97;;;1.67;;
8791;SDS011;4432;50.890;4.744;2023-02-01T15:46:09;5.60;;;1.40;;
8791;SDS011;4432;50.890;4.744;2023-02-01T15:48:38;4.23;;;1.47;;
8791;SDS011;4432;50.890;4.744;2023-02-01T15:51:17;10.67;;;1.77;;
8791;SDS011;4432;50.890;4.744;2023-02-01T15:53:51;2.17;;;1.40;;
8791;SDS011;4432;50.890;4.744;2023-02-01T15:56:24;11.43;;;2.23;;
8791;SDS011;4432;50.890;4.744;2023-02-01T15:58:58;8.23;;;1.43;;
8791;SDS011;4432;50.890;4.744;2023-02-01T16:01:26;10.30;;;1.60;;
8791;SDS011;4432;50.890;4.744;2023-02-01T16:04:03;4.83;;;1.50;;
8791;SDS011;4432;50.890;4.744;2023-02-01T16:06:51;14.40;;;1.80;;
8791;SDS011;4432;50.890;4.744;2023-02-01T16:09:25;13.77;;;2.03;;
8791;SDS011;4432;50.890;4.744;2023-02-01T16:12:34;6.50;;;1.70;;
8791;SDS011;4432;50.890;4.744;2023-02-01T16:15:11;5.70;;;1.60;;
8791;SDS011;4432;50.890;4.744;2023-02-01T16:17:37;9.23;;;2.07;;
8791;SDS011;4432;50.890;4.744;2023-02-01T16:20:03;6.53;;;1.83;;
8791;SDS011;4432;50.890;4.744;2023-02-01T16:22:29;5.30;;;1.60;;
8791;SDS011;4432;50.890;4.744;2023-02-01T16:24:55;8.43;;;2.40;;
8791;SDS011;4432;50.890;4.744;2023-02-01T16:27:22;4.93;;;1.50;;
8791;SDS011;4432;50.890;4.744;2023-02-01T16:29:48;3.60;;;1.40;;
8791;SDS011;4432;50.890;4.744;2023-02-01T16:32:19;12.47;;;1.90;;
8791;SDS011;4432;50.890;4.744;2023-02-01T16:34:46;8.03;;;1.87;;
8791;SDS011;4432;50.890;4.744;2023-02-01T16:37:13;8.30;;;2.13;;
8791;SDS011;4432;50.890;4.744;2023-02-01T16:39:42;4.03;;;2.07;;
8791;SDS011;4432;50.890;4.744;2023-02-01T16:42:14;9.33;;;2.03;;
8791;SDS011;4432;50.890;4.744;2023-02-01T16:44:41;7.10;;;2.07;;
8791;SDS011;4432;50.890;4.744;2023-02-01T16:47:11;6.40;;;2.00;;
8791;SDS011;4432;50.890;4.744;2023-02-01T16:49:41;9.43;;;1.60;;
8791;SDS011;4432;50.890;4.744;2023-02-01T16:52:11;6.70;;;1.87;;
8791;SDS011;4432;50.890;4.744;2023-02-01T16:54:49;2.50;;;1.47;;
8791;SDS011;4432;50.890;4.744;2023-02-01T16:57:15;4.03;;;1.50;;
8791;SDS011;4432;50.890;4.744;2023-02-01T16:59:43;7.13;;;1.87;;
8791;SDS011;4432;50.890;4.744;2023-02-01T17:02:11;7.33;;;2.30;;
8791;SDS011;4432;50.890;4.744;2023-02-01T17:04:41;8.43;;;2.03;;
8791;SDS011;4432;50.890;4.744;2023-02-01T17:07:10;6.33;;;1.80;;
8791;SDS011;4432;50.890;4.744;2023-02-01T17:09:38;7.17;;;2.43;;
8791;SDS011;4432;50.890;4.744;2023-02-01T17:12:04;12.60;;;2.10;;
8791;SDS011;4432;50.890;4.744;2023-02-01T17:14:31;8.03;;;2.47;;
8791;SDS011;4432;50.890;4.744;2023-02-01T17:17:01;11.27;;;2.00;;
8791;SDS011;4432;50.890;4.744;2023-02-01T17:19:27;5.40;;;1.40;;
8791;SDS011;4432;50.890;4.744;2023-02-01T17:21:53;10.60;;;2.17;;
8791;SDS011;4432;50.890;4.744;2023-02-01T17:24:24;11.50;;;2.17;;
8791;SDS011;4432;50.890;4.744;2023-02-01T17:26:52;3.37;;;1.57;;
8791;SDS011;4432;50.890;4.744;2023-02-01T17:29:18;7.07;;;1.63;;
8791;SDS011;4432;50.890;4.744;2023-02-01T17:31:45;10.60;;;2.27;;
8791;SDS011;4432;50.890;4.744;2023-02-01T17:34:13;8.93;;;2.03;;
8791;SDS011;4432;50.890;4.744;2023-02-01T17:36:40;2.83;;;1.47;;
8791;SDS011;4432;50.890;4.744;2023-02-01T17:39:07;4.07;;;1.40;;